Weather observations for the past three days for
Baton Rouge, Baton Rouge Metropolitan, Ryan Field
| Date | Time (cdt) | Wind (mph) | Vis. (mi.) | Weather | Sky Cond. | Temperature (ºF) | Relative Humidity | Wind Chill (°F) | Heat Index (°F) | Pressure | Precipitation (in) | ||||||
|---|---|---|---|---|---|---|---|---|---|---|---|---|---|---|---|---|---|
| Air | Dwpt | 6 hour | altimeter (in) | sea level (mb) | 1 hr | 3 hr | 6 hr | ||||||||||
| Max. | Min. | ||||||||||||||||
| 30 | 18:53 | E 10 | 10.00 | Fair | CLR | 84.9 | 73.9 | 96.1 | 84.9 | 70% | 92 | 29.97 | 1014.8 | ||||
| 30 | 17:53 | E 10 | 10.00 | Fair | CLR | 84.9 | 73.9 | 70% | 92 | 29.98 | 1015.1 | ||||||
| 30 | 16:53 | SE 10 | 10.00 | Mostly Cloudy | BKN080 | 86 | 72 | 63% | 92 | 29.98 | 1014.8 | ||||||
| 30 | 15:53 | SE 17 G 24 | 10.00 | Mostly Cloudy | SCT045 BKN060 BKN085 | 86 | 73 | 65% | 93 | 29.98 | 1015.1 | ||||||
| 30 | 14:53 | NE 8 | 10.00 | Partly Cloudy | FEW048 SCT070 SCT085 | 93 | 71.1 | 49% | 100 | 29.99 | 1015.2 | ||||||
| 30 | 13:53 | NE 10 | 10.00 | Mostly Cloudy | SCT050 BKN075 BKN110 | 91.9 | 71.1 | 51% | 99 | 30.01 | 1015.9 | ||||||
| 30 | 12:53 | NE 6 | 10.00 | Partly Cloudy | FEW048 SCT075 SCT090 | 90 | 71.1 | 91.9 | 75 | 54% | 96 | 30.03 | 1016.8 | ||||
| 30 | 11:53 | Calm | 10.00 | Mostly Cloudy | SCT039 BKN075 | 91 | 73 | 56% | 100 | 30.06 | 1017.6 | ||||||
| 30 | 10:53 | Vrbl 6 | 10.00 | Fair | CLR | 89.1 | 73.9 | 61% | 98 | 30.06 | 1017.8 | ||||||
| 30 | 09:53 | E 3 | 10.00 | A Few Clouds | FEW020 | 86 | 75 | 70% | 95 | 30.05 | 1017.5 | ||||||
| 30 | 08:53 | E 6 | 10.00 | Fair | CLR | 82 | 75.9 | 82% | 89 | 30.05 | 1017.5 | ||||||
| 30 | 07:53 | NE 5 | 10.00 | Fair | CLR | 75.9 | 73.9 | 94% | 75 | 30.05 | 1017.6 | ||||||
| 30 | 06:53 | NE 5 | 10.00 | Fair | CLR | 75 | 73 | 77 | 73.9 | 94% | 73 | 30.04 | 1016.9 | ||||
| 30 | 05:53 | NE 5 | 10.00 | Fair | CLR | 75 | 73 | 94% | 73 | 30.02 | 1016.4 | ||||||
| 30 | 04:53 | N 3 | 10.00 | Fair | CLR | 75 | 73 | 94% | 73 | 30.02 | 1016.2 | ||||||
| 30 | 03:53 | Calm | 10.00 | Fair | CLR | 75 | 73 | 94% | 73 | 30.01 | 1015.9 | ||||||
| 30 | 02:53 | NE 3 | 10.00 | Fair | CLR | 73.9 | 72 | 94% | 30 | 1015.8 | |||||||
| 30 | 01:53 | Calm | 10.00 | Fair | CLR | 75.9 | 72 | 88% | 76 | 30.02 | 1016.3 | ||||||
| 30 | 00:53 | E 6 | 10.00 | Fair | CLR | 75.9 | 72 | 91 | 73.9 | 88% | 76 | 30.04 | 1016.9 | ||||
| 29 | 23:53 | E 5 | 10.00 | Fair | CLR | 75 | 69.1 | 82% | 75 | 30.03 | 1016.8 | ||||||
| 29 | 22:53 | E 5 | 10.00 | Fair | CLR | 75 | 69.1 | 82% | 75 | 30.03 | 1016.6 | ||||||
| 29 | 21:53 | Calm | 10.00 | Fair | CLR | 78.1 | 69.1 | 74% | 80 | 30.01 | 1016.1 | ||||||
| 29 | 20:53 | NE 3 | 10.00 | Fair | CLR | 80.1 | 70 | 71% | 83 | 29.99 | 1015.3 | ||||||
| 29 | 19:53 | Calm | 10.00 | Fair | CLR | 82.9 | 68 | 61% | 86 | 29.97 | 1014.9 | ||||||
| 29 | 18:53 | NE 6 | 10.00 | Fair | CLR | 91 | 63 | 97 | 91 | 39% | 92 | 29.96 | 1014.4 | ||||
| 29 | 17:53 | E 7 | 10.00 | Fair | CLR | 93.9 | 63 | 36% | 95 | 29.97 | 1014.6 | ||||||
| 29 | 16:53 | NE 7 | 10.00 | Fair | CLR | 95 | 64 | 36% | 97 | 29.97 | 1014.8 | ||||||
| 29 | 15:53 | NE 9 | 10.00 | A Few Clouds | FEW080 | 96.1 | 64 | 35% | 98 | 29.99 | 1015.3 | ||||||
| 29 | 14:53 | Calm | 10.00 | A Few Clouds | FEW065 | 93.9 | 66 | 40% | 97 | 30.01 | 1016.0 | ||||||
| 29 | 13:53 | NE 8 | 10.00 | A Few Clouds | FEW060 | 93 | 66.9 | 42% | 97 | 30.03 | 1016.7 | ||||||
| 29 | 12:53 | E 6 | 10.00 | Partly Cloudy | FEW055 SCT080 | 93.9 | 69.1 | 95 | 75 | 44% | 99 | 30.05 | 1017.2 | ||||
| 29 | 11:53 | NE 8 | 10.00 | Fair | CLR | 93 | 71.1 | 49% | 100 | 30.06 | 1017.9 | ||||||
| 29 | 10:53 | NE 6 | 10.00 | Fair | CLR | 90 | 73 | 58% | 98 | 30.07 | 1017.9 | ||||||
| 29 | 09:53 | E 9 | 10.00 | Fair | CLR | 87.1 | 73 | 63% | 95 | 30.05 | 1017.5 | ||||||
| 29 | 08:53 | NE 3 | 10.00 | Fair | CLR | 82 | 73 | 74% | 87 | 30.05 | 1017.4 | ||||||
| 29 | 07:53 | NE 6 | 10.00 | Fair | CLR | 77 | 73 | 88% | 78 | 30.05 | 1017.5 | ||||||
| 29 | 06:53 | Calm | 10.00 | Fair | CLR | 75 | 73 | 79 | 75 | 94% | 73 | 30.04 | 1017.0 | ||||
| 29 | 05:53 | NE 3 | 10.00 | Fair | CLR | 75.9 | 72 | 88% | 76 | 30.02 | 1016.4 | ||||||
| 29 | 04:53 | NE 3 | 10.00 | Fair | CLR | 75.9 | 73 | 91% | 76 | 30.01 | 1016.2 | ||||||
| 29 | 03:53 | Calm | 10.00 | Fair | CLR | 77 | 73 | 88% | 78 | 30.01 | 1016.1 | ||||||
| 29 | 02:53 | Calm | 10.00 | Fair | CLR | 77 | 73 | 88% | 78 | 30.01 | 1016.0 | ||||||
| 29 | 01:53 | NE 3 | 10.00 | Fair | CLR | 78.1 | 73 | 85% | 81 | 30.01 | 1016.1 | ||||||
| 29 | 00:53 | NE 6 | 10.00 | Fair | CLR | 79 | 73 | 91 | 79 | 82% | 82 | 30.01 | 1016.1 | ||||
| 28 | 23:53 | Calm | 10.00 | Fair | CLR | 80.1 | 73.9 | 82% | 85 | 30.01 | 1015.9 | ||||||
| 28 | 22:53 | NE 3 | 10.00 | Mostly Cloudy | BKN070 | 82 | 73.9 | 77% | 88 | 30.01 | 1016.0 | ||||||
| 28 | 21:53 | Calm | 10.00 | Mostly Cloudy | BKN075 BKN100 | 82.9 | 73 | 72% | 89 | 29.99 | 1015.4 | ||||||
| 28 | 20:53 | Calm | 10.00 | Fair | CLR | 82 | 73 | 74% | 87 | 29.97 | 1014.8 | ||||||
| 28 | 19:53 | Calm | 10.00 | Fair | CLR | 84.9 | 72 | 65% | 91 | 29.96 | 1014.4 | ||||||
| 28 | 18:53 | NE 5 | 10.00 | Fair | CLR | 91 | 68 | 96.1 | 91 | 47% | 95 | 29.94 | 1013.8 | ||||
| 28 | 17:53 | N 6 | 10.00 | Fair | CLR | 95 | 68 | 41% | 100 | 29.95 | 1014.0 | ||||||
| 28 | 16:53 | NE 8 | 10.00 | Fair | CLR | 95 | 69.1 | 43% | 101 | 29.95 | 1014.1 | ||||||
| 28 | 15:53 | N 8 | 10.00 | Fair | CLR | 96.1 | 69.1 | 41% | 102 | 29.97 | 1014.7 | ||||||
| 28 | 14:53 | Vrbl 5 | 10.00 | Partly Cloudy | SCT060 | 95 | 70 | 44% | 101 | 30 | 1015.6 | ||||||
| 28 | 13:53 | N 9 | 10.00 | Partly Cloudy | SCT055 | 93.9 | 70 | 46% | 100 | 30.02 | 1016.3 | ||||||
| 28 | 12:53 | N 8 G 20 | 10.00 | A Few Clouds | FEW049 | 93 | 70 | 93.9 | 75.9 | 47% | 99 | 30.03 | 1016.7 | ||||
| 28 | 11:53 | N 5 | 10.00 | A Few Clouds | FEW042 | 91 | 71.1 | 52% | 98 | 30.04 | 1017.0 | ||||||
| 28 | 10:53 | NE 5 | 10.00 | A Few Clouds | FEW037 | 89.1 | 73.9 | 61% | 98 | 30.04 | 1017.1 | ||||||
| 28 | 09:53 | NW 8 | 10.00 | Fair | CLR | 87.1 | 75.9 | 70% | 98 | 30.04 | 1016.9 | ||||||
| 28 | 08:53 | NW 7 | 10.00 | Fair | CLR | 82 | 75 | 79% | 89 | 30.03 | 1016.8 | ||||||
| 28 | 07:53 | NW 3 | 10.00 | Fair | CLR | 78.1 | 75 | 90% | 81 | 30.03 | 1016.7 | ||||||
| 28 | 06:53 | Calm | 10.00 | Fair | CLR | 75.9 | 73.9 | 78.1 | 75.9 | 94% | 75 | 30.01 | 1016.1 | ||||
| 28 | 05:53 | NW 3 | 10.00 | Fair | CLR | 77 | 75 | 94% | 78 | 30 | 1015.6 | ||||||
| 28 | 04:53 | Calm | 10.00 | Fair | CLR | 77 | 75 | 94% | 78 | 29.99 | 1015.4 | ||||||
| 28 | 03:53 | NW 5 | 10.00 | Fair | CLR | 78.1 | 75 | 90% | 81 | 29.99 | 1015.4 | ||||||
| 28 | 02:53 | Calm | 10.00 | Fair | CLR | 78.1 | 75 | 90% | 81 | 29.99 | 1015.4 | ||||||
| 28 | 01:53 | Calm | 10.00 | Fair | CLR | 78.1 | 75 | 90% | 81 | 30 | 1015.8 | ||||||
| 28 | 00:53 | Calm | 10.00 | Fair | CLR | 78.1 | 75 | 87.1 | 78.1 | 90% | 81 | 30 | 1015.6 | ||||
| 27 | 23:53 | Calm | 10.00 | Fair | CLR | 78.1 | 75 | 90% | 81 | 29.99 | 1015.4 | ||||||
| 27 | 22:53 | Calm | 10.00 | Fair | CLR | 79 | 75 | 88% | 83 | 29.98 | 1015.2 | ||||||
| 27 | 21:53 | W 5 | 10.00 | Partly Cloudy | SCT047 SCT055 | 81 | 75.9 | 85% | 87 | 29.97 | 1014.7 | ||||||
| 27 | 20:53 | W 3 | 10.00 | Fair | CLR | 82 | 73.9 | 77% | 88 | 29.94 | 1013.8 | ||||||
| 27 | 19:53 | Calm | 10.00 | Fair | CLR | 84 | 72 | 67% | 90 | 29.92 | 1013.2 | ||||||
| Date | Time (cdt) | Wind (mph) | Vis. (mi.) | Weather | Sky Cond. | Air | Dwpt | Max. | Min. | Relative Humidity | Wind Chill (°F) | Heat Index (°F) | altimeter (in) | sea level (mb) | 1 hr | 3 hr | 6 hr |
| 6 hour | |||||||||||||||||
| Temperature (ºF) | Pressure | Precipitation (in) | |||||||||||||||